Terminal Aerodrome Forecast
Issued by NWS Jackson, KY

Home | Current Version | Previous Version | Graphics & Text | Print | Product List | Glossary On
Versions: 1 2 3 4 5 6 7 8 9 10 11 12 13 14 15 16 17 18 19 20 21 22 23 24 25
000
FTUS43 KJKL 072338
TAFLOZ
TAF
KLOZ 072338Z 0800/0824 VRB03KT P6SM FEW200 SCT250
     FM080700 VRB03KT P6SM BKN080
     FM080900 VRB06KT P6SM -SHSN BKN080
     FM081600 29009KT P6SM FEW200 SCT250=

USA.gov is the U.S. government's official web portal to all federal, state and local government web resources and services.